Moyer Aviation Incorporated

Pocono Mountains Airport

188 Airport Drive. Tobyhanna, PA 18466 

P: 570-839-7161
800-321-5890
F: 570-839-7162

Weather

Weather

Pocono Weather

KMPO 130653Z AUTO 34005KT 10SM CLR 12/08 A3014 RMK AO2 SLP199 T01220078

Allentown Weather

KABE 130651Z 00000KT 10SM CLR 14/07 A3010 RMK AO2 SLP190 T01390072

Wilkes-Barre Weather

KAVP 130654Z 12003KT 10SM CLR 12/09 A3013 RMK AO2 SLP194 T01220089


* required field

Contact Us